createdAt,value
2023-02-09T00:04:38.240Z,9.77
2023-02-09T00:09:40.385Z,7.88
2023-02-09T00:14:42.542Z,6.45
2023-02-09T00:19:44.648Z,7.13
2023-02-09T00:24:46.737Z,8.07
2023-02-09T00:29:48.856Z,7.65
2023-02-09T00:34:53.017Z,6.93
2023-02-09T00:39:56.008Z,6.35
2023-02-09T00:44:58.184Z,7.13
2023-02-09T00:50:00.361Z,6.65
2023-02-09T00:55:05.780Z,6.85
2023-02-09T01:00:08.730Z,7.88
2023-02-09T01:05:12.156Z,6.55
2023-02-09T01:10:14.381Z,5.97
2023-02-09T01:15:16.652Z,7.10
2023-02-09T01:20:19.516Z,7.75
2023-02-09T01:25:21.787Z,5.97
2023-02-09T01:30:23.893Z,7.10
2023-02-09T01:35:26.128Z,8.60
2023-02-09T01:40:28.280Z,8.82
2023-02-09T01:45:47.146Z,8.23
2023-02-09T01:50:51.105Z,8.23
2023-02-09T01:55:59.621Z,8.45
2023-02-09T02:01:01.752Z,10.80
2023-02-09T02:06:10.861Z,9.23
2023-02-09T02:11:13.320Z,9.70
2023-02-09T02:16:15.322Z,9.05
2023-02-09T02:21:26.205Z,8.10
2023-02-09T02:26:43.921Z,8.45
2023-02-09T02:32:10.108Z,8.15
2023-02-09T02:37:18.005Z,9.00
2023-02-09T02:42:53.392Z,9.02
2023-02-09T02:48:04.530Z,7.60
2023-02-09T02:53:09.592Z,9.40
2023-02-09T02:58:14.386Z,7.32
2023-02-09T03:03:22.068Z,6.93
2023-02-09T03:08:24.104Z,7.38
2023-02-09T03:14:14.154Z,7.82
2023-02-09T03:19:45.406Z,8.10
2023-02-09T03:24:53.502Z,8.18
2023-02-09T03:30:01.100Z,7.05
2023-02-09T03:35:05.451Z,6.95
2023-02-09T03:40:08.395Z,8.32
2023-02-09T03:45:10.377Z,6.40
2023-02-09T03:50:12.477Z,7.00
2023-02-09T03:55:14.582Z,8.88
2023-02-09T04:00:17.539Z,6.57
2023-02-09T04:05:20.094Z,8.50
2023-02-09T04:10:22.290Z,5.82
2023-02-09T04:15:24.293Z,8.18
2023-02-09T04:20:26.314Z,6.95
2023-02-09T04:25:28.317Z,7.93
2023-02-09T04:30:30.392Z,7.80
2023-02-09T04:35:32.425Z,7.65
2023-02-09T04:40:34.446Z,9.13
2023-02-09T04:45:38.780Z,8.05
2023-02-09T04:50:40.944Z,7.70
2023-02-09T04:55:45.310Z,10.63
2023-02-09T05:00:47.639Z,8.30
2023-02-09T05:05:49.944Z,8.13
2023-02-09T05:10:53.046Z,9.07
2023-02-09T05:15:55.681Z,8.75
2023-02-09T05:20:57.755Z,10.10
2023-02-09T05:25:59.864Z,14.68
2023-02-09T05:31:01.936Z,9.52
2023-02-09T05:36:09.549Z,12.18
2023-02-09T05:41:33.340Z,9.65
2023-02-09T05:46:35.436Z,9.63
2023-02-09T05:51:37.521Z,9.52
2023-02-09T05:56:40.890Z,11.25
2023-02-09T06:01:43.267Z,11.30
2023-02-09T06:06:45.444Z,12.07
2023-02-09T06:11:47.772Z,12.57
2023-02-09T06:16:49.848Z,11.55
2023-02-09T06:21:51.878Z,10.68
2023-02-09T06:26:54.070Z,11.65
2023-02-09T06:31:56.329Z,10.30
2023-02-09T06:36:58.412Z,9.95
2023-02-09T06:42:00.434Z,14.98
2023-02-09T06:47:02.546Z,12.85
2023-02-09T06:52:04.896Z,11.80
2023-02-09T06:57:06.907Z,11.38
2023-02-09T07:02:11.259Z,11.68
2023-02-09T07:07:13.351Z,15.77
2023-02-09T07:12:15.468Z,21.45
2023-02-09T07:17:17.542Z,16.02
2023-02-09T07:22:19.558Z,16.83
2023-02-09T07:27:21.696Z,16.70
2023-02-09T07:32:24.551Z,13.18
2023-02-09T07:37:26.708Z,15.15
2023-02-09T07:42:28.901Z,13.70
2023-02-09T07:47:35.870Z,11.60
2023-02-09T07:52:38.026Z,11.07
2023-02-09T07:57:40.405Z,10.85
2023-02-09T08:02:44.594Z,11.65
2023-02-09T08:07:46.841Z,8.50
2023-02-09T08:12:59.892Z,10.20
2023-02-09T08:18:09.304Z,9.35
2023-02-09T08:23:18.857Z,11.68
2023-02-09T08:28:27.047Z,11.07
2023-02-09T08:33:33.973Z,10.60
2023-02-09T08:38:36.085Z,11.98
2023-02-09T08:43:38.316Z,11.55
2023-02-09T08:48:44.365Z,10.48
2023-02-09T08:53:52.369Z,10.70
2023-02-09T08:58:54.626Z,8.80
2023-02-09T09:03:57.521Z,9.20
2023-02-09T09:08:59.690Z,10.20
2023-02-09T09:14:01.889Z,11.65
2023-02-09T09:19:05.490Z,11.32
2023-02-09T09:24:07.585Z,13.55
2023-02-09T09:29:10.840Z,14.98
2023-02-09T09:34:12.931Z,15.68
2023-02-09T09:39:15.014Z,14.82
2023-02-09T09:44:27.786Z,15.65
2023-02-09T09:49:31.969Z,16.73
2023-02-09T09:54:36.604Z,15.95
2023-02-09T09:59:38.863Z,16.00
2023-02-09T10:04:40.954Z,21.65
2023-02-09T10:09:48.443Z,14.80
2023-02-09T10:14:50.487Z,15.95
2023-02-09T10:20:04.589Z,16.63
2023-02-09T10:25:37.531Z,16.25
2023-02-09T10:30:39.644Z,14.63
2023-02-09T10:35:46.453Z,18.90
2023-02-09T10:40:50.074Z,17.63
2023-02-09T10:45:58.882Z,18.70
2023-02-09T10:51:14.296Z,15.27
2023-02-09T10:56:22.186Z,16.58
2023-02-09T11:01:28.761Z,14.23
2023-02-09T11:06:43.980Z,15.38
2023-02-09T11:11:46.232Z,15.57
2023-02-09T11:17:16.256Z,15.50
2023-02-09T11:22:34.581Z,14.68
2023-02-09T11:27:42.152Z,18.02
2023-02-09T11:33:06.893Z,13.07
2023-02-09T11:38:17.153Z,13.60
2023-02-09T11:43:27.153Z,10.57
2023-02-09T11:48:38.957Z,11.50
2023-02-09T11:54:12.017Z,12.63
2023-02-09T11:59:37.222Z,7.93
2023-02-09T12:04:42.337Z,7.80
2023-02-09T12:09:55.550Z,7.75
2023-02-09T12:15:17.553Z,7.97
2023-02-09T12:20:46.030Z,7.90
2023-02-09T12:25:55.651Z,6.97
2023-02-09T12:30:57.666Z,3.38
2023-02-09T12:36:24.577Z,4.68
2023-02-09T12:41:35.400Z,2.85
2023-02-09T12:46:48.217Z,2.50
2023-02-09T12:51:56.403Z,2.13
2023-02-09T12:57:22.397Z,3.40
2023-02-09T13:02:26.294Z,2.13
2023-02-09T13:07:34.485Z,3.78
2023-02-09T13:12:42.731Z,3.05
2023-02-09T13:18:09.962Z,2.17
2023-02-09T13:23:36.151Z,3.05
2023-02-09T13:28:38.341Z,3.20
2023-02-09T13:33:48.544Z,2.75
2023-02-09T13:38:50.956Z,3.33
2023-02-09T13:43:53.022Z,1.85
2023-02-09T13:49:09.257Z,2.92
2023-02-09T13:54:21.027Z,1.63
2023-02-09T14:04:30.026Z,4.13
2023-02-09T14:09:46.438Z,3.03
2023-02-09T14:15:15.326Z,2.53
2023-02-09T14:20:24.995Z,3.30
2023-02-09T14:25:29.008Z,6.35
2023-02-09T14:30:36.339Z,4.32
2023-02-09T14:35:41.273Z,3.95
2023-02-09T14:40:43.315Z,6.22
2023-02-09T14:45:49.401Z,2.00
2023-02-09T14:50:57.902Z,2.40
2023-02-09T14:55:59.930Z,4.80
2023-02-09T15:01:03.264Z,4.80
2023-02-09T15:06:06.524Z,1.75
2023-02-09T15:11:33.311Z,2.28
2023-02-09T15:16:35.363Z,2.28
2023-02-09T15:21:37.375Z,3.95
2023-02-09T15:26:39.536Z,3.03
2023-02-09T15:31:42.354Z,4.35
2023-02-09T15:36:44.784Z,6.25
2023-02-09T15:42:07.180Z,4.35
2023-02-09T15:47:28.081Z,3.92
2023-02-09T15:52:32.876Z,2.22
2023-02-09T15:57:42.392Z,4.88
2023-02-09T16:02:44.511Z,2.45
2023-02-09T16:07:46.935Z,4.03
2023-02-09T16:12:49.067Z,3.80
2023-02-09T16:17:51.782Z,2.67
2023-02-09T16:22:56.753Z,4.15
2023-02-09T16:27:58.844Z,1.88
2023-02-09T16:33:00.936Z,6.13
2023-02-09T16:38:03.182Z,3.63
2023-02-09T16:43:06.077Z,4.65
2023-02-09T16:48:20.605Z,3.70
2023-02-09T16:53:36.335Z,3.42
2023-02-09T16:58:39.185Z,3.60
2023-02-09T17:03:43.729Z,4.32
2023-02-09T17:08:46.580Z,6.90
2023-02-09T17:13:48.961Z,3.70
2023-02-09T17:18:55.342Z,3.55
2023-02-09T17:23:57.999Z,3.83
2023-02-09T17:29:00.018Z,5.68
2023-02-09T17:34:06.332Z,4.53
2023-02-09T17:39:11.286Z,4.97
2023-02-09T17:44:28.887Z,5.90
2023-02-09T17:49:38.817Z,5.80
2023-02-09T17:54:40.881Z,5.28
2023-02-09T17:59:43.449Z,6.55
2023-02-09T18:04:45.604Z,5.93
2023-02-09T18:09:47.743Z,7.07
2023-02-09T18:14:49.824Z,7.45
2023-02-09T18:19:51.854Z,4.75
2023-02-09T18:25:00.008Z,4.65
2023-02-09T18:30:03.184Z,6.82
2023-02-09T18:35:05.945Z,5.38
2023-02-09T18:40:08.168Z,6.53
2023-02-09T18:45:12.584Z,4.15
2023-02-09T18:50:20.802Z,6.53
2023-02-09T18:55:24.935Z,4.38
2023-02-09T19:00:27.284Z,4.88
2023-02-09T19:05:32.529Z,5.68
2023-02-09T19:10:36.125Z,6.38
2023-02-09T19:15:39.198Z,6.40
2023-02-09T19:20:41.330Z,8.07
2023-02-09T19:25:43.623Z,6.68
2023-02-09T19:30:45.697Z,4.97
2023-02-09T19:35:59.077Z,8.48
2023-02-09T19:41:11.792Z,7.05
2023-02-09T19:46:13.896Z,8.98
2023-02-09T19:51:16.406Z,5.60
2023-02-09T19:56:23.586Z,6.47
2023-02-09T20:01:27.069Z,6.93
2023-02-09T20:06:30.951Z,7.68
2023-02-09T20:11:33.673Z,9.10
2023-02-09T20:16:35.796Z,8.48
2023-02-09T20:21:37.997Z,6.43
2023-02-09T20:26:41.251Z,10.93
2023-02-09T20:31:43.537Z,5.30
2023-02-09T20:36:48.264Z,6.15
2023-02-09T20:42:15.216Z,5.07
2023-02-09T20:47:17.838Z,4.75
2023-02-09T20:52:19.883Z,6.00
2023-02-09T20:57:24.854Z,5.63
2023-02-09T21:02:27.785Z,7.63
2023-02-09T21:07:29.823Z,5.50
2023-02-09T21:12:31.876Z,3.33
2023-02-09T21:17:34.289Z,4.97
2023-02-09T21:22:36.313Z,5.07
2023-02-09T21:27:39.162Z,5.15
2023-02-09T21:32:41.234Z,4.68
2023-02-09T21:37:43.329Z,4.80
2023-02-09T21:42:45.349Z,3.58
2023-02-09T21:47:47.395Z,6.07
2023-02-09T21:52:49.955Z,5.30
2023-02-09T21:57:52.018Z,5.32
2023-02-09T22:02:54.833Z,7.38
2023-02-09T22:07:56.858Z,4.32
2023-02-09T22:12:58.943Z,5.28
2023-02-09T22:18:00.966Z,6.75
2023-02-09T22:23:02.979Z,5.38
2023-02-09T22:28:05.923Z,7.38
2023-02-09T22:33:08.052Z,7.22
2023-02-09T22:38:10.103Z,6.30
2023-02-09T22:43:12.099Z,4.70
2023-02-09T22:48:14.101Z,8.57
2023-02-09T22:53:16.202Z,5.88
2023-02-09T22:58:18.207Z,6.28
2023-02-09T23:03:20.192Z,6.15
2023-02-09T23:08:23.113Z,6.30
2023-02-09T23:13:25.171Z,5.68
2023-02-09T23:18:27.220Z,11.07
2023-02-09T23:23:29.796Z,4.60
2023-02-09T23:28:32.004Z,6.10
2023-02-09T23:33:36.251Z,7.10
2023-02-09T23:38:38.426Z,8.18
2023-02-09T23:43:40.622Z,7.40
2023-02-09T23:48:44.642Z,9.32
2023-02-09T23:53:47.771Z,7.32
2023-02-09T23:58:52.082Z,8.77
